sensor_id;sensor_type;location;lat;lon;timestamp;pressure;altitude;pressure_sealevel;temperature;humidity
9746;BME280;4912;50.836;12.958;2023-12-20T00:02:26;97411.50;;;5.89;100.00
9746;BME280;4912;50.836;12.958;2023-12-20T00:05:00;97410.56;;;5.83;100.00
9746;BME280;4912;50.836;12.958;2023-12-20T00:07:31;97414.38;;;5.86;100.00
9746;BME280;4912;50.836;12.958;2023-12-20T00:10:03;97410.09;;;5.85;100.00
9746;BME280;4912;50.836;12.958;2023-12-20T00:12:35;97405.16;;;5.92;100.00
9746;BME280;4912;50.836;12.958;2023-12-20T00:15:07;97409.72;;;5.95;100.00
9746;BME280;4912;50.836;12.958;2023-12-20T00:17:38;97398.19;;;6.00;100.00
9746;BME280;4912;50.836;12.958;2023-12-20T00:20:12;97394.78;;;5.96;100.00
9746;BME280;4912;50.836;12.958;2023-12-20T00:22:43;97405.47;;;5.94;100.00
9746;BME280;4912;50.836;12.958;2023-12-20T00:25:14;97391.00;;;5.81;100.00
9746;BME280;4912;50.836;12.958;2023-12-20T00:27:45;97390.88;;;5.85;100.00
9746;BME280;4912;50.836;12.958;2023-12-20T00:30:16;97390.31;;;5.90;100.00
9746;BME280;4912;50.836;12.958;2023-12-20T00:33:01;97390.25;;;5.81;100.00
9746;BME280;4912;50.836;12.958;2023-12-20T00:35:38;97383.97;;;5.80;100.00
9746;BME280;4912;50.836;12.958;2023-12-20T00:38:09;97389.09;;;5.69;100.00
9746;BME280;4912;50.836;12.958;2023-12-20T00:40:40;97382.06;;;5.68;100.00
9746;BME280;4912;50.836;12.958;2023-12-20T00:43:11;97377.78;;;5.67;100.00
9746;BME280;4912;50.836;12.958;2023-12-20T00:45:42;97374.25;;;5.66;100.00
9746;BME280;4912;50.836;12.958;2023-12-20T00:48:13;97374.16;;;5.70;100.00
9746;BME280;4912;50.836;12.958;2023-12-20T00:50:47;97375.03;;;5.67;100.00
9746;BME280;4912;50.836;12.958;2023-12-20T00:53:17;97376.75;;;5.73;100.00
9746;BME280;4912;50.836;12.958;2023-12-20T00:55:51;97370.56;;;5.60;100.00
9746;BME280;4912;50.836;12.958;2023-12-20T00:58:22;97364.56;;;5.53;100.00
9746;BME280;4912;50.836;12.958;2023-12-20T01:00:54;97364.06;;;5.67;100.00
9746;BME280;4912;50.836;12.958;2023-12-20T01:03:25;97358.19;;;5.56;100.00
9746;BME280;4912;50.836;12.958;2023-12-20T01:05:59;97363.59;;;5.47;100.00
9746;BME280;4912;50.836;12.958;2023-12-20T01:08:32;97352.28;;;5.45;100.00
9746;BME280;4912;50.836;12.958;2023-12-20T01:11:04;97353.06;;;5.45;100.00
9746;BME280;4912;50.836;12.958;2023-12-20T01:13:35;97351.53;;;5.44;100.00
9746;BME280;4912;50.836;12.958;2023-12-20T01:16:06;97356.91;;;5.48;100.00
9746;BME280;4912;50.836;12.958;2023-12-20T01:18:37;97353.31;;;5.38;100.00
9746;BME280;4912;50.836;12.958;2023-12-20T01:21:11;97350.44;;;5.42;100.00
9746;BME280;4912;50.836;12.958;2023-12-20T01:23:42;97352.53;;;5.38;100.00
9746;BME280;4912;50.836;12.958;2023-12-20T01:26:14;97346.41;;;5.33;100.00
9746;BME280;4912;50.836;12.958;2023-12-20T01:28:45;97351.91;;;5.33;100.00
9746;BME280;4912;50.836;12.958;2023-12-20T01:31:16;97352.34;;;5.32;100.00
9746;BME280;4912;50.836;12.958;2023-12-20T01:33:47;97355.50;;;5.30;100.00
9746;BME280;4912;50.836;12.958;2023-12-20T01:36:21;97360.13;;;5.33;100.00
9746;BME280;4912;50.836;12.958;2023-12-20T01:38:52;97342.13;;;5.32;100.00
9746;BME280;4912;50.836;12.958;2023-12-20T01:41:23;97350.34;;;5.32;100.00
9746;BME280;4912;50.836;12.958;2023-12-20T01:43:54;97356.94;;;5.35;100.00
9746;BME280;4912;50.836;12.958;2023-12-20T01:46:26;97340.78;;;5.37;100.00
9746;BME280;4912;50.836;12.958;2023-12-20T01:48:57;97335.00;;;5.35;100.00
9746;BME280;4912;50.836;12.958;2023-12-20T01:51:31;97337.97;;;5.28;100.00
9746;BME280;4912;50.836;12.958;2023-12-20T01:54:03;97333.47;;;5.34;100.00
9746;BME280;4912;50.836;12.958;2023-12-20T01:56:34;97329.63;;;5.31;100.00
9746;BME280;4912;50.836;12.958;2023-12-20T01:59:06;97336.56;;;5.23;100.00
9746;BME280;4912;50.836;12.958;2023-12-20T02:01:38;97325.59;;;5.23;100.00
9746;BME280;4912;50.836;12.958;2023-12-20T02:04:09;97324.78;;;5.35;100.00
9746;BME280;4912;50.836;12.958;2023-12-20T02:06:43;97326.00;;;5.34;100.00
9746;BME280;4912;50.836;12.958;2023-12-20T02:09:17;97324.38;;;5.24;100.00
9746;BME280;4912;50.836;12.958;2023-12-20T02:11:48;97317.13;;;5.30;100.00
9746;BME280;4912;50.836;12.958;2023-12-20T02:14:19;97318.97;;;5.33;100.00
9746;BME280;4912;50.836;12.958;2023-12-20T02:16:50;97310.56;;;5.28;100.00
9746;BME280;4912;50.836;12.958;2023-12-20T02:19:21;97307.19;;;5.24;100.00
9746;BME280;4912;50.836;12.958;2023-12-20T02:22:10;97321.31;;;5.22;100.00
9746;BME280;4912;50.836;12.958;2023-12-20T02:24:41;97322.47;;;5.12;100.00
9746;BME280;4912;50.836;12.958;2023-12-20T02:27:13;97312.13;;;5.16;100.00
9746;BME280;4912;50.836;12.958;2023-12-20T02:29:47;97319.47;;;5.19;100.00
9746;BME280;4912;50.836;12.958;2023-12-20T02:32:18;97314.75;;;5.20;100.00
9746;BME280;4912;50.836;12.958;2023-12-20T02:34:50;97312.97;;;5.26;100.00
9746;BME280;4912;50.836;12.958;2023-12-20T02:37:24;97314.50;;;5.27;100.00
9746;BME280;4912;50.836;12.958;2023-12-20T02:39:54;97307.56;;;5.35;100.00
9746;BME280;4912;50.836;12.958;2023-12-20T02:42:37;97304.69;;;5.39;100.00
9746;BME280;4912;50.836;12.958;2023-12-20T02:45:10;97320.19;;;5.32;100.00
9746;BME280;4912;50.836;12.958;2023-12-20T02:47:41;97303.19;;;5.25;100.00
9746;BME280;4912;50.836;12.958;2023-12-20T02:50:12;97308.59;;;5.28;100.00
9746;BME280;4912;50.836;12.958;2023-12-20T02:52:46;97297.47;;;5.32;100.00
9746;BME280;4912;50.836;12.958;2023-12-20T02:55:17;97304.63;;;5.29;100.00
9746;BME280;4912;50.836;12.958;2023-12-20T02:57:48;97305.13;;;5.37;100.00
9746;BME280;4912;50.836;12.958;2023-12-20T03:00:19;97310.56;;;5.28;100.00
9746;BME280;4912;50.836;12.958;2023-12-20T03:02:50;97307.69;;;5.31;100.00
9746;BME280;4912;50.836;12.958;2023-12-20T03:05:21;97304.75;;;5.26;100.00
9746;BME280;4912;50.836;12.958;2023-12-20T03:07:55;97300.66;;;5.30;100.00
9746;BME280;4912;50.836;12.958;2023-12-20T03:10:25;97292.00;;;5.32;100.00
9746;BME280;4912;50.836;12.958;2023-12-20T03:12:56;97293.09;;;5.34;100.00
9746;BME280;4912;50.836;12.958;2023-12-20T03:15:27;97289.34;;;5.41;100.00
9746;BME280;4912;50.836;12.958;2023-12-20T03:17:58;97282.31;;;5.40;100.00
9746;BME280;4912;50.836;12.958;2023-12-20T03:20:29;97281.09;;;5.41;100.00
9746;BME280;4912;50.836;12.958;2023-12-20T03:23:04;97281.03;;;5.32;100.00
9746;BME280;4912;50.836;12.958;2023-12-20T03:25:35;97288.38;;;5.35;100.00
9746;BME280;4912;50.836;12.958;2023-12-20T03:28:06;97288.66;;;5.37;100.00
9746;BME280;4912;50.836;12.958;2023-12-20T03:30:37;97284.53;;;5.32;100.00
9746;BME280;4912;50.836;12.958;2023-12-20T03:33:08;97287.06;;;5.27;100.00
9746;BME280;4912;50.836;12.958;2023-12-20T03:35:39;97281.03;;;5.32;100.00
9746;BME280;4912;50.836;12.958;2023-12-20T03:38:12;97290.44;;;5.31;100.00
9746;BME280;4912;50.836;12.958;2023-12-20T03:40:43;97290.63;;;5.15;100.00
9746;BME280;4912;50.836;12.958;2023-12-20T03:43:14;97281.34;;;5.12;100.00
9746;BME280;4912;50.836;12.958;2023-12-20T03:45:45;97291.53;;;5.12;100.00
9746;BME280;4912;50.836;12.958;2023-12-20T03:48:16;97291.25;;;5.19;100.00
9746;BME280;4912;50.836;12.958;2023-12-20T03:50:47;97296.31;;;5.20;100.00
9746;BME280;4912;50.836;12.958;2023-12-20T03:53:21;97297.84;;;5.21;100.00
9746;BME280;4912;50.836;12.958;2023-12-20T03:55:52;97302.13;;;5.22;100.00
9746;BME280;4912;50.836;12.958;2023-12-20T03:58:23;97288.94;;;5.30;100.00
9746;BME280;4912;50.836;12.958;2023-12-20T04:00:53;97282.69;;;5.29;100.00
9746;BME280;4912;50.836;12.958;2023-12-20T04:03:25;97285.88;;;5.28;100.00
9746;BME280;4912;50.836;12.958;2023-12-20T04:05:57;97284.53;;;5.32;100.00
9746;BME280;4912;50.836;12.958;2023-12-20T04:08:31;97288.84;;;5.21;100.00
9746;BME280;4912;50.836;12.958;2023-12-20T04:11:02;97289.97;;;5.23;100.00
9746;BME280;4912;50.836;12.958;2023-12-20T04:13:33;97290.38;;;5.22;100.00
9746;BME280;4912;50.836;12.958;2023-12-20T04:16:05;97300.94;;;5.23;100.00
9746;BME280;4912;50.836;12.958;2023-12-20T04:18:36;97295.31;;;5.27;100.00
9746;BME280;4912;50.836;12.958;2023-12-20T04:21:07;97296.06;;;5.27;100.00
9746;BME280;4912;50.836;12.958;2023-12-20T04:23:41;97294.88;;;5.28;100.00
9746;BME280;4912;50.836;12.958;2023-12-20T04:26:11;97288.22;;;5.39;100.00
9746;BME280;4912;50.836;12.958;2023-12-20T04:28:42;97283.06;;;5.41;100.00
9746;BME280;4912;50.836;12.958;2023-12-20T04:31:13;97286.50;;;5.32;100.00
9746;BME280;4912;50.836;12.958;2023-12-20T04:33:44;97296.13;;;5.36;100.00
9746;BME280;4912;50.836;12.958;2023-12-20T04:36:15;97293.19;;;5.31;100.00
9746;BME280;4912;50.836;12.958;2023-12-20T04:38:49;97287.59;;;5.34;100.00
9746;BME280;4912;50.836;12.958;2023-12-20T04:41:19;97291.13;;;5.35;100.00
9746;BME280;4912;50.836;12.958;2023-12-20T04:43:51;97300.59;;;5.43;100.00
9746;BME280;4912;50.836;12.958;2023-12-20T04:46:21;97298.00;;;5.40;100.00
9746;BME280;4912;50.836;12.958;2023-12-20T04:48:52;97296.91;;;5.37;100.00
9746;BME280;4912;50.836;12.958;2023-12-20T04:51:23;97296.47;;;5.39;100.00
9746;BME280;4912;50.836;12.958;2023-12-20T04:53:57;97295.44;;;5.23;100.00
9746;BME280;4912;50.836;12.958;2023-12-20T04:56:28;97309.22;;;5.32;100.00
9746;BME280;4912;50.836;12.958;2023-12-20T04:58:59;97301.63;;;5.36;100.00
9746;BME280;4912;50.836;12.958;2023-12-20T05:01:30;97303.19;;;5.25;100.00
9746;BME280;4912;50.836;12.958;2023-12-20T05:04:01;97299.16;;;5.29;100.00
9746;BME280;4912;50.836;12.958;2023-12-20T05:06:32;97307.19;;;5.46;100.00
9746;BME280;4912;50.836;12.958;2023-12-20T05:09:06;97311.66;;;5.52;100.00
9746;BME280;4912;50.836;12.958;2023-12-20T05:11:36;97306.63;;;5.51;100.00
9746;BME280;4912;50.836;12.958;2023-12-20T05:14:08;97315.66;;;5.39;100.00
9746;BME280;4912;50.836;12.958;2023-12-20T05:16:39;97317.19;;;5.40;100.00
9746;BME280;4912;50.836;12.958;2023-12-20T05:19:10;97324.03;;;5.35;100.00
9746;BME280;4912;50.836;12.958;2023-12-20T05:21:41;97316.72;;;5.19;100.00
9746;BME280;4912;50.836;12.958;2023-12-20T05:24:15;97303.00;;;5.19;100.00
9746;BME280;4912;50.836;12.958;2023-12-20T05:26:45;97322.53;;;5.21;100.00
9746;BME280;4912;50.836;12.958;2023-12-20T05:29:20;97328.03;;;5.21;100.00
9746;BME280;4912;50.836;12.958;2023-12-20T05:31:51;97322.09;;;5.23;100.00
9746;BME280;4912;50.836;12.958;2023-12-20T05:34:22;97327.34;;;5.30;100.00
9746;BME280;4912;50.836;12.958;2023-12-20T05:36:53;97323.56;;;5.36;100.00
9746;BME280;4912;50.836;12.958;2023-12-20T05:39:27;97322.50;;;5.34;100.00
9746;BME280;4912;50.836;12.958;2023-12-20T05:41:58;97324.78;;;5.35;100.00
9746;BME280;4912;50.836;12.958;2023-12-20T05:44:29;97321.84;;;5.30;100.00
9746;BME280;4912;50.836;12.958;2023-12-20T05:46:59;97317.13;;;5.30;100.00
9746;BME280;4912;50.836;12.958;2023-12-20T05:49:30;97337.41;;;5.33;100.00
9746;BME280;4912;50.836;12.958;2023-12-20T05:52:01;97338.25;;;5.43;100.00
9746;BME280;4912;50.836;12.958;2023-12-20T05:54:35;97343.72;;;5.43;100.00
9746;BME280;4912;50.836;12.958;2023-12-20T05:57:06;97345.34;;;5.53;100.00
9746;BME280;4912;50.836;12.958;2023-12-20T05:59:37;97347.13;;;5.47;100.00
9746;BME280;4912;50.836;12.958;2023-12-20T06:02:08;97349.50;;;5.35;100.00
9746;BME280;4912;50.836;12.958;2023-12-20T06:04:42;97349.50;;;5.35;100.00
9746;BME280;4912;50.836;12.958;2023-12-20T06:07:13;97353.69;;;5.49;100.00
9746;BME280;4912;50.836;12.958;2023-12-20T06:09:46;97346.03;;;5.44;100.00
9746;BME280;4912;50.836;12.958;2023-12-20T06:12:18;97343.81;;;5.52;100.00
9746;BME280;4912;50.836;12.958;2023-12-20T06:14:49;97348.88;;;5.53;100.00
9746;BME280;4912;50.836;12.958;2023-12-20T06:17:20;97348.44;;;5.42;100.00
9746;BME280;4912;50.836;12.958;2023-12-20T06:19:51;97353.63;;;5.40;100.00
9746;BME280;4912;50.836;12.958;2023-12-20T06:22:22;97355.03;;;5.45;100.00
9746;BME280;4912;50.836;12.958;2023-12-20T06:24:56;97358.56;;;5.45;100.00
9746;BME280;4912;50.836;12.958;2023-12-20T06:27:27;97350.88;;;5.40;100.00
9746;BME280;4912;50.836;12.958;2023-12-20T06:29:59;97361.88;;;5.40;100.00
9746;BME280;4912;50.836;12.958;2023-12-20T06:32:30;97366.97;;;5.51;100.00
9746;BME280;4912;50.836;12.958;2023-12-20T06:35:02;97368.13;;;5.62;100.00
9746;BME280;4912;50.836;12.958;2023-12-20T06:37:33;97367.25;;;5.65;100.00
9746;BME280;4912;50.836;12.958;2023-12-20T06:40:08;97379.19;;;5.71;100.00
9746;BME280;4912;50.836;12.958;2023-12-20T06:42:44;97371.22;;;5.64;100.00
9746;BME280;4912;50.836;12.958;2023-12-20T06:45:31;97371.44;;;5.57;100.00
9746;BME280;4912;50.836;12.958;2023-12-20T06:48:02;97380.03;;;5.59;100.00
9746;BME280;4912;50.836;12.958;2023-12-20T06:50:33;97380.47;;;5.58;100.00
9746;BME280;4912;50.836;12.958;2023-12-20T06:53:07;97384.03;;;5.67;100.00
9746;BME280;4912;50.836;12.958;2023-12-20T06:55:41;97382.81;;;5.68;100.00
9746;BME280;4912;50.836;12.958;2023-12-20T06:58:12;97388.66;;;5.70;100.00
9746;BME280;4912;50.836;12.958;2023-12-20T07:00:43;97391.25;;;5.74;100.00
9746;BME280;4912;50.836;12.958;2023-12-20T07:03:15;97395.78;;;5.68;100.00
9746;BME280;4912;50.836;12.958;2023-12-20T07:05:46;97394.47;;;5.60;100.00
9746;BME280;4912;50.836;12.958;2023-12-20T07:08:17;97392.97;;;5.59;100.00
9746;BME280;4912;50.836;12.958;2023-12-20T07:10:50;97392.41;;;5.64;100.00
9746;BME280;4912;50.836;12.958;2023-12-20T07:13:21;97399.44;;;5.65;100.00
9746;BME280;4912;50.836;12.958;2023-12-20T07:15:52;97401.59;;;5.70;100.00
9746;BME280;4912;50.836;12.958;2023-12-20T07:18:23;97396.94;;;5.80;100.00
9746;BME280;4912;50.836;12.958;2023-12-20T07:20:54;97406.63;;;5.71;100.00
9746;BME280;4912;50.836;12.958;2023-12-20T07:23:25;97399.69;;;5.80;100.00
9746;BME280;4912;50.836;12.958;2023-12-20T07:25:58;97406.38;;;5.78;100.00
9746;BME280;4912;50.836;12.958;2023-12-20T07:28:29;97403.19;;;5.80;100.00
9746;BME280;4912;50.836;12.958;2023-12-20T07:31:01;97409.31;;;5.84;100.00
9746;BME280;4912;50.836;12.958;2023-12-20T07:33:32;97409.66;;;5.86;100.00
9746;BME280;4912;50.836;12.958;2023-12-20T07:36:06;97410.22;;;5.81;100.00
9746;BME280;4912;50.836;12.958;2023-12-20T07:38:37;97411.09;;;5.78;100.00
9746;BME280;4912;50.836;12.958;2023-12-20T07:41:12;97413.84;;;5.78;100.00
9746;BME280;4912;50.836;12.958;2023-12-20T07:43:43;97409.00;;;5.82;100.00
9746;BME280;4912;50.836;12.958;2023-12-20T07:46:14;97408.78;;;5.89;100.00
9746;BME280;4912;50.836;12.958;2023-12-20T07:48:45;97397.50;;;5.87;100.00
9746;BME280;4912;50.836;12.958;2023-12-20T07:51:16;97405.50;;;5.82;100.00
9746;BME280;4912;50.836;12.958;2023-12-20T07:53:48;97396.50;;;5.81;100.00
9746;BME280;4912;50.836;12.958;2023-12-20T07:56:22;97405.41;;;5.72;100.00
9746;BME280;4912;50.836;12.958;2023-12-20T07:58:53;97418.25;;;5.75;100.00
9746;BME280;4912;50.836;12.958;2023-12-20T08:01:26;97408.28;;;5.69;100.00
9746;BME280;4912;50.836;12.958;2023-12-20T08:03:57;97407.09;;;5.70;100.00
9746;BME280;4912;50.836;12.958;2023-12-20T08:06:28;97409.25;;;5.75;100.00
9746;BME280;4912;50.836;12.958;2023-12-20T08:08:59;97409.78;;;5.83;100.00
9746;BME280;4912;50.836;12.958;2023-12-20T08:11:35;97410.97;;;5.94;100.00
9746;BME280;4912;50.836;12.958;2023-12-20T08:14:06;97406.34;;;5.91;100.00
9746;BME280;4912;50.836;12.958;2023-12-20T08:16:37;97414.25;;;5.89;100.00
9746;BME280;4912;50.836;12.958;2023-12-20T08:19:08;97411.84;;;5.91;100.00
9746;BME280;4912;50.836;12.958;2023-12-20T08:21:39;97410.31;;;5.90;100.00
9746;BME280;4912;50.836;12.958;2023-12-20T08:24:10;97417.34;;;5.91;100.00
9746;BME280;4912;50.836;12.958;2023-12-20T08:26:44;97417.22;;;5.95;100.00
9746;BME280;4912;50.836;12.958;2023-12-20T08:29:16;97413.06;;;5.90;100.00
9746;BME280;4912;50.836;12.958;2023-12-20T08:31:44;97412.75;;;5.88;100.00
9746;BME280;4912;50.836;12.958;2023-12-20T08:34:15;97416.34;;;5.85;100.00
9746;BME280;4912;50.836;12.958;2023-12-20T08:36:46;97413.84;;;5.78;100.00
9746;BME280;4912;50.836;12.958;2023-12-20T08:39:17;97413.75;;;5.82;100.00
9746;BME280;4912;50.836;12.958;2023-12-20T08:41:50;97412.97;;;5.81;100.00
9746;BME280;4912;50.836;12.958;2023-12-20T08:44:21;97420.78;;;5.83;100.00
9746;BME280;4912;50.836;12.958;2023-12-20T08:46:52;97413.16;;;5.87;100.00
9746;BME280;4912;50.836;12.958;2023-12-20T08:49:24;97418.25;;;5.88;100.00
9746;BME280;4912;50.836;12.958;2023-12-20T08:51:55;97411.84;;;5.91;100.00
9746;BME280;4912;50.836;12.958;2023-12-20T08:54:26;97422.41;;;5.93;100.00
9746;BME280;4912;50.836;12.958;2023-12-20T08:57:00;97427.94;;;6.02;100.00
9746;BME280;4912;50.836;12.958;2023-12-20T08:59:33;97425.22;;;6.24;100.00
9746;BME280;4912;50.836;12.958;2023-12-20T09:02:04;97429.22;;;6.32;100.00
9746;BME280;4912;50.836;12.958;2023-12-20T09:04:35;97424.84;;;6.43;100.00
9746;BME280;4912;50.836;12.958;2023-12-20T09:07:20;97418.50;;;6.55;100.00
9746;BME280;4912;50.836;12.958;2023-12-20T09:09:53;97425.84;;;6.89;100.00
9746;BME280;4912;50.836;12.958;2023-12-20T09:12:26;97428.00;;;6.94;100.00
9746;BME280;4912;50.836;12.958;2023-12-20T09:14:57;97425.88;;;6.98;100.00
9746;BME280;4912;50.836;12.958;2023-12-20T09:17:29;97432.84;;;7.30;100.00
9746;BME280;4912;50.836;12.958;2023-12-20T09:20:00;97433.69;;;7.76;98.73
9746;BME280;4912;50.836;12.958;2023-12-20T09:22:34;97424.03;;;8.54;93.06
9746;BME280;4912;50.836;12.958;2023-12-20T09:25:05;97427.63;;;9.11;87.49
9746;BME280;4912;50.836;12.958;2023-12-20T09:27:40;97426.44;;;9.60;82.98
9746;BME280;4912;50.836;12.958;2023-12-20T09:30:12;97415.97;;;9.64;83.30
9746;BME280;4912;50.836;12.958;2023-12-20T09:32:53;97410.31;;;10.20;79.11
9746;BME280;4912;50.836;12.958;2023-12-20T09:35:24;97415.75;;;9.91;78.47
9746;BME280;4912;50.836;12.958;2023-12-20T09:37:56;97414.47;;;10.01;78.29
9746;BME280;4912;50.836;12.958;2023-12-20T09:40:26;97411.81;;;9.44;79.53
9746;BME280;4912;50.836;12.958;2023-12-20T09:43:03;97404.59;;;9.14;81.91
9746;BME280;4912;50.836;12.958;2023-12-20T09:45:35;97396.22;;;8.76;83.19
9746;BME280;4912;50.836;12.958;2023-12-20T09:48:10;97403.31;;;8.58;83.41
9746;BME280;4912;50.836;12.958;2023-12-20T09:50:43;97402.91;;;8.23;83.90
9746;BME280;4912;50.836;12.958;2023-12-20T09:53:20;97403.53;;;8.18;85.28
9746;BME280;4912;50.836;12.958;2023-12-20T09:55:58;97405.09;;;7.83;86.04
9746;BME280;4912;50.836;12.958;2023-12-20T09:58:35;97403.72;;;7.69;87.39
9746;BME280;4912;50.836;12.958;2023-12-20T10:01:08;97393.75;;;7.54;87.66
9746;BME280;4912;50.836;12.958;2023-12-20T10:03:39;97389.94;;;7.51;88.08
9746;BME280;4912;50.836;12.958;2023-12-20T10:06:11;97382.22;;;7.19;89.32
9746;BME280;4912;50.836;12.958;2023-12-20T10:08:43;97363.84;;;6.97;89.98
9746;BME280;4912;50.836;12.958;2023-12-20T10:11:14;97368.50;;;6.79;91.15
9746;BME280;4912;50.836;12.958;2023-12-20T10:13:50;97365.81;;;6.88;92.71
9746;BME280;4912;50.836;12.958;2023-12-20T10:16:24;97354.78;;;6.79;91.61
9746;BME280;4912;50.836;12.958;2023-12-20T10:18:56;97367.56;;;6.73;91.49
9746;BME280;4912;50.836;12.958;2023-12-20T10:21:27;97356.41;;;6.67;91.98
9746;BME280;4912;50.836;12.958;2023-12-20T10:23:58;97361.13;;;6.67;91.95
9746;BME280;4912;50.836;12.958;2023-12-20T10:26:29;97366.94;;;6.60;91.51
9746;BME280;4912;50.836;12.958;2023-12-20T10:29:03;97360.97;;;6.61;91.48
9746;BME280;4912;50.836;12.958;2023-12-20T10:31:35;97359.38;;;6.91;90.51
9746;BME280;4912;50.836;12.958;2023-12-20T10:34:06;97363.63;;;7.41;88.46
9746;BME280;4912;50.836;12.958;2023-12-20T10:36:37;97354.63;;;7.59;86.28
9746;BME280;4912;50.836;12.958;2023-12-20T10:39:09;97338.69;;;7.72;83.97
9746;BME280;4912;50.836;12.958;2023-12-20T10:41:42;97349.69;;;7.90;82.99
9746;BME280;4912;50.836;12.958;2023-12-20T10:44:17;97351.06;;;7.95;80.51
9746;BME280;4912;50.836;12.958;2023-12-20T10:46:47;97345.59;;;7.76;81.43
9746;BME280;4912;50.836;12.958;2023-12-20T10:49:26;97339.63;;;7.51;81.24
9746;BME280;4912;50.836;12.958;2023-12-20T10:51:59;97337.47;;;7.64;81.47
9746;BME280;4912;50.836;12.958;2023-12-20T10:54:33;97337.31;;;7.67;81.85
9746;BME280;4912;50.836;12.958;2023-12-20T10:57:05;97324.59;;;7.88;80.52
9746;BME280;4912;50.836;12.958;2023-12-20T10:59:39;97315.03;;;8.35;79.79
9746;BME280;4912;50.836;12.958;2023-12-20T11:02:13;97318.34;;;8.81;76.96
9746;BME280;4912;50.836;12.958;2023-12-20T11:04:49;97314.41;;;9.20;75.30
9746;BME280;4912;50.836;12.958;2023-12-20T11:07:29;97311.19;;;8.98;74.00
9746;BME280;4912;50.836;12.958;2023-12-20T11:10:12;97320.25;;;8.66;74.70
9746;BME280;4912;50.836;12.958;2023-12-20T11:12:48;97320.50;;;8.44;75.03
9746;BME280;4912;50.836;12.958;2023-12-20T11:15:26;97327.28;;;8.15;75.82
9746;BME280;4912;50.836;12.958;2023-12-20T11:17:58;97325.66;;;8.00;76.90
9746;BME280;4912;50.836;12.958;2023-12-20T11:20:36;97315.69;;;8.02;76.66
9746;BME280;4912;50.836;12.958;2023-12-20T11:23:10;97317.09;;;7.98;75.77
9746;BME280;4912;50.836;12.958;2023-12-20T11:25:48;97318.47;;;7.84;77.26
9746;BME280;4912;50.836;12.958;2023-12-20T11:28:21;97329.22;;;7.64;78.58
9746;BME280;4912;50.836;12.958;2023-12-20T11:30:57;97317.59;;;7.42;79.52
9746;BME280;4912;50.836;12.958;2023-12-20T11:33:30;97318.19;;;7.36;80.42
9746;BME280;4912;50.836;12.958;2023-12-20T11:36:03;97328.75;;;7.38;79.87
9746;BME280;4912;50.836;12.958;2023-12-20T11:38:37;97312.69;;;7.18;80.10
9746;BME280;4912;50.836;12.958;2023-12-20T11:41:08;97318.94;;;7.10;80.22
9746;BME280;4912;50.836;12.958;2023-12-20T11:43:39;97316.19;;;7.01;81.72
9746;BME280;4912;50.836;12.958;2023-12-20T11:46:13;97314.06;;;7.05;81.69
9746;BME280;4912;50.836;12.958;2023-12-20T11:48:44;97312.22;;;7.11;80.89
9746;BME280;4912;50.836;12.958;2023-12-20T11:51:16;97301.63;;;8.00;78.40
9746;BME280;4912;50.836;12.958;2023-12-20T11:53:51;97287.00;;;8.36;75.30
9746;BME280;4912;50.836;12.958;2023-12-20T11:56:22;97286.38;;;8.32;75.11
9746;BME280;4912;50.836;12.958;2023-12-20T11:58:53;97289.59;;;8.31;75.89
9746;BME280;4912;50.836;12.958;2023-12-20T12:01:48;97276.63;;;8.88;73.84
9746;BME280;4912;50.836;12.958;2023-12-20T12:04:19;97270.09;;;9.00;72.54
9746;BME280;4912;50.836;12.958;2023-12-20T12:06:50;97288.19;;;8.77;72.60
9746;BME280;4912;50.836;12.958;2023-12-20T12:09:21;97274.75;;;8.28;73.92
9746;BME280;4912;50.836;12.958;2023-12-20T12:11:52;97278.34;;;8.01;75.08
9746;BME280;4912;50.836;12.958;2023-12-20T12:14:23;97276.34;;;8.02;77.10
9746;BME280;4912;50.836;12.958;2023-12-20T12:16:58;97265.66;;;8.04;75.72
9746;BME280;4912;50.836;12.958;2023-12-20T12:19:29;97253.28;;;7.99;76.25
9746;BME280;4912;50.836;12.958;2023-12-20T12:22:07;97254.53;;;7.89;76.67
9746;BME280;4912;50.836;12.958;2023-12-20T12:24:43;97242.75;;;7.89;76.91
9746;BME280;4912;50.836;12.958;2023-12-20T12:27:16;97242.91;;;7.85;76.56
9746;BME280;4912;50.836;12.958;2023-12-20T12:30:00;97254.34;;;7.93;76.39
9746;BME280;4912;50.836;12.958;2023-12-20T12:32:38;97237.19;;;8.07;76.28
9746;BME280;4912;50.836;12.958;2023-12-20T12:35:10;97230.03;;;7.91;76.59
9746;BME280;4912;50.836;12.958;2023-12-20T12:37:42;97229.44;;;7.78;76.76
9746;BME280;4912;50.836;12.958;2023-12-20T12:40:13;97234.53;;;7.61;77.42
9746;BME280;4912;50.836;12.958;2023-12-20T12:42:45;97224.47;;;7.49;78.43
9746;BME280;4912;50.836;12.958;2023-12-20T12:45:16;97216.06;;;7.53;78.51
9746;BME280;4912;50.836;12.958;2023-12-20T12:47:51;97203.84;;;7.54;78.36
9746;BME280;4912;50.836;12.958;2023-12-20T12:50:22;97212.50;;;7.61;77.99
9746;BME280;4912;50.836;12.958;2023-12-20T12:52:56;97204.56;;;7.54;78.57
9746;BME280;4912;50.836;12.958;2023-12-20T12:55:27;97209.50;;;7.41;77.81
9746;BME280;4912;50.836;12.958;2023-12-20T12:57:59;97189.31;;;7.44;77.57
9746;BME280;4912;50.836;12.958;2023-12-20T13:00:31;97197.66;;;7.77;76.66
9746;BME280;4912;50.836;12.958;2023-12-20T13:03:05;97192.97;;;8.34;74.47
9746;BME280;4912;50.836;12.958;2023-12-20T13:05:38;97203.56;;;8.59;72.26
9746;BME280;4912;50.836;12.958;2023-12-20T13:08:21;97195.91;;;8.31;73.25
9746;BME280;4912;50.836;12.958;2023-12-20T13:11:01;97193.94;;;8.22;73.34
9746;BME280;4912;50.836;12.958;2023-12-20T13:13:40;97186.94;;;8.12;74.06
9746;BME280;4912;50.836;12.958;2023-12-20T13:16:14;97181.38;;;8.21;74.12
9746;BME280;4912;50.836;12.958;2023-12-20T13:18:51;97190.28;;;8.16;73.82
9746;BME280;4912;50.836;12.958;2023-12-20T13:21:23;97183.56;;;8.17;73.22
9746;BME280;4912;50.836;12.958;2023-12-20T13:24:03;97170.44;;;8.03;74.03
9746;BME280;4912;50.836;12.958;2023-12-20T13:26:47;97167.31;;;8.19;74.00
9746;BME280;4912;50.836;12.958;2023-12-20T13:29:21;97175.03;;;8.39;73.40
9746;BME280;4912;50.836;12.958;2023-12-20T13:31:55;97173.56;;;8.19;73.21
9746;BME280;4912;50.836;12.958;2023-12-20T13:34:29;97157.56;;;8.09;74.18
9746;BME280;4912;50.836;12.958;2023-12-20T13:37:09;97156.41;;;8.01;74.17
9746;BME280;4912;50.836;12.958;2023-12-20T13:39:46;97160.28;;;8.18;73.50
9746;BME280;4912;50.836;12.958;2023-12-20T13:42:20;97164.53;;;8.19;72.83
9746;BME280;4912;50.836;12.958;2023-12-20T13:44:58;97164.28;;;8.17;72.66